This is the latest recevied weather packets stored in our database for station/object N4DBJ. If no packets are shown the sender has not sent any weather packets the latest 10 day(s).
| Time | Temp. | Humidity | Pressure | Rain* | Wind** | Luminosity | Snow |
|---|---|---|---|---|---|---|---|
| 1777158522 | 26.11° C | 58% | 1006.6 hPa | 0 mm | - | 58 W/m² | - |
| 1777158212 | 25.56° C | 57% | 1006.5 hPa | 0 mm | - | 130 W/m² | - |
| 1777157908 | 25.56° C | 63% | 1006.6 hPa | 0 mm | - | 60 W/m² | - |
| 1777157604 | 25.56° C | 59% | 1006.3 hPa | 0 mm | - | 81 W/m² | - |
| 1777157301 | 26.11° C | 58% | 1006.4 hPa | 0 mm | - | 72 W/m² | - |
| 1777157000 | 25° C | 61% | 1006.2 hPa | 0 mm | - | 196 W/m² | - |
| 1777156695 | 25° C | 58% | 1005.9 hPa | 0 mm | - | 209 W/m² | - |
| 1777156393 | 25.56° C | 57% | 1006.1 hPa | 0 mm | - | 168 W/m² | - |
| 1777156088 | 25.56° C | 55% | 1006 hPa | 0 mm | - | 218 W/m² | - |
| 1777155785 | 26.11° C | 56% | 1005.9 hPa | 0 mm | - | 267 W/m² | - |
| 1777155480 | 25.56° C | 57% | 1006 hPa | 0 mm | - | 284 W/m² | - |
| 1777155178 | 26.11° C | 56% | 1006.2 hPa | 0 mm | - | 274 W/m² | - |
| 1777154875 | 26.11° C | 57% | 1006 hPa | 0 mm | - | 315 W/m² | - |
| 1777154572 | 26.11° C | 56% | 1006.1 hPa | 0 mm | - | 326 W/m² | - |
| 1777154267 | 26.67° C | 53% | 1006.2 hPa | 0 mm | - | 330 W/m² | - |
| 1777153963 | 26.67° C | 53% | 1006.2 hPa | 0 mm | - | 349 W/m² | - |
| 1777153659 | 26.67° C | 53% | 1006.1 hPa | 0 mm | - | 356 W/m² | - |
| 1777153356 | 26.11° C | 55% | 1006.2 hPa | 0 mm | - | 377 W/m² | - |
| 1777153052 | 26.67° C | 56% | 1006.2 hPa | 0 mm | - | 339 W/m² | - |
| 1777152748 | 26.11° C | 58% | 1006.1 hPa | 0 mm | - | 414 W/m² | - |
| 1777152445 | 26.11° C | 58% | 1006 hPa | 0 mm | - | 473 W/m² | - |
| 1777152136 | 25.56° C | 58% | 1005.9 hPa | 0 mm | - | 451 W/m² | - |
| 1777151836 | 25° C | 61% | 1006.2 hPa | 0 mm | - | 368 W/m² | - |
| 1777151532 | 26.11° C | 57% | 1006.2 hPa | 0 mm | - | 128 W/m² | - |
| 1777151229 | 25.56° C | 58% | 1006.1 hPa | 0 mm | - | 442 W/m² | - |
* Rain latest hour (hover to see other rain measurements)
** Current wind speed in m/s (hover to see current wind gust speed)